Dobbins Air Reserve Base Airport
KMGE : now visible

Airfield :











YOU CAN JOIN US ON...

 
LOGIN :

Register | Disclaimer

   EN    FR    IT 

 









Legend :    VFR   Marginal VFR   IFR   Intensive IFR   Very Intensive IFR
Visi :
Ceiling :
>= 8 km
>= 3000ft
5 to 8 km
1000 to 3000 ft
1500m to 5 km
500 to 1000 ft
800 to 1500m
200 to 500 ft
< 800m
< 200 ft
Symbols :   Thunderstorms  Fog  Heavy snow  Heavy precipitations  Wind > 20 kt






- Airport Elevation : 1068 ft


KMGE - Dobbins Air Reserve Base

CURRENT METAR :
  • 291755Z 08003KT 10SM SCT017 BKN022 OVC085 11/03 A3022 RMK AO2A SLP236 T01080029 10116 20066 58015 $

EXPIRED METARs :
  • 291726Z 14005KT 10SM SCT018 OVC022 11/01 A3023 RMK AO2A SCT V BKN $
  • 291700Z 11005KT 10SM BKN015 OVC022 10/01 A3025 RMK AO2A $
  • 291655Z 10004KT 10SM SCT015 BKN022 10/01 A3025 RMK AO2A SCT V BKN SLP248 T01030011 $
  • 291555Z COR 10003KT 10SM SCT016 OVC022 09/00 A3028 RMK AO2A SLP258 T00930002 $ COR 1559
  • 291543Z 10001KT 10SM SCT016 BKN022 09/00 A3027 RMK AO2A $

TAF TAF KMGE
Valid from the 29 at 14:00 until the 30 at 20:00 UTC


291410Z 2914/3020 12005KT 9999 BKN015 OVC080 QNH3020INS
BECMG 2915/2916 14005KT 9999 BKN020 OVC040 QNH3018INS
BECMG 2920/2921 15005KT 9000 -RA BKN020 OVC040 QNH3015INS
BECMG 2922/2923 14005KT 8000 -RA BR BKN010 OVC020 QNH3012INS
BECMG 2923/2924 12005KT 4800 -RA BR OVC007 QNH3012INS
BECMG 3001/3002 12005KT 2400 RA BR OVC005 QNH3015INS
BECMG 3010/3011 10008KT 4800 BR VCSH OVC005 QNH3010INS TX14/2921Z TN08/3013Z LAST NO AMDS AFT 2921 NEXT 3012
KZTL FIR / North America



MET'MAP, your aeronautical weather chart ! - Copyright ORBIFLY December 2007 - Disclaimer

ORBIFLY MET'MAP TEAM :

Programming & Development : Alexandra Zaïnal
Original concept : Baudouin d'Aumeries
Technical & hardware support : Manuel Goepfert
Assistance : Marc-Olivier Méhu




SOURCES & CREDITS :

   NOAA       Earth
Advisory